sensor_id;sensor_type;location;lat;lon;timestamp;pressure;altitude;pressure_sealevel;temperature;humidity
62592;BME280;48659;41.622;2.276;2023-05-22T00:02:00;99488.79;;;15.27;63.63
62592;BME280;48659;41.622;2.276;2023-05-22T00:04:28;99487.98;;;16.10;60.36
62592;BME280;48659;41.622;2.276;2023-05-22T00:07:05;99488.66;;;16.42;60.20
62592;BME280;48659;41.622;2.276;2023-05-22T00:09:32;99485.69;;;16.73;59.42
62592;BME280;48659;41.622;2.276;2023-05-22T00:12:05;99478.53;;;17.04;57.48
62592;BME280;48659;41.622;2.276;2023-05-22T00:14:32;99487.53;;;15.36;61.30
62592;BME280;48659;41.622;2.276;2023-05-22T00:17:15;99483.78;;;14.72;64.20
62592;BME280;48659;41.622;2.276;2023-05-22T00:19:43;99488.40;;;14.79;63.38
62592;BME280;48659;41.622;2.276;2023-05-22T00:22:18;99490.53;;;14.79;63.79
62592;BME280;48659;41.622;2.276;2023-05-22T00:24:46;99489.28;;;15.59;62.40
62592;BME280;48659;41.622;2.276;2023-05-22T00:27:14;99485.61;;;16.84;58.41
62592;BME280;48659;41.622;2.276;2023-05-22T00:29:42;99482.48;;;17.74;55.29
62592;BME280;48659;41.622;2.276;2023-05-22T00:32:09;99481.63;;;17.59;54.27
62592;BME280;48659;41.622;2.276;2023-05-22T00:34:37;99481.15;;;18.04;53.06
62592;BME280;48659;41.622;2.276;2023-05-22T00:37:05;99480.78;;;18.09;52.64
62592;BME280;48659;41.622;2.276;2023-05-22T00:39:32;99477.24;;;17.02;54.45
62592;BME280;48659;41.622;2.276;2023-05-22T00:42:00;99478.61;;;17.91;53.47
62592;BME280;48659;41.622;2.276;2023-05-22T00:44:28;99477.50;;;17.78;53.69
62592;BME280;48659;41.622;2.276;2023-05-22T00:46:56;99474.25;;;17.33;54.58
62592;BME280;48659;41.622;2.276;2023-05-22T00:49:24;99472.13;;;18.26;53.68
62592;BME280;48659;41.622;2.276;2023-05-22T00:51:52;99469.91;;;17.91;53.51
62592;BME280;48659;41.622;2.276;2023-05-22T00:54:20;99473.35;;;17.33;54.27
62592;BME280;48659;41.622;2.276;2023-05-22T00:56:48;99473.96;;;18.45;52.51
62592;BME280;48659;41.622;2.276;2023-05-22T00:59:16;99470.25;;;17.96;53.43
62592;BME280;48659;41.622;2.276;2023-05-22T01:01:44;99471.55;;;17.44;54.26
62592;BME280;48659;41.622;2.276;2023-05-22T01:04:12;99471.96;;;18.01;53.16
62592;BME280;48659;41.622;2.276;2023-05-22T01:06:39;99473.74;;;18.22;53.23
62592;BME280;48659;41.622;2.276;2023-05-22T01:09:07;99472.32;;;17.73;53.93
62592;BME280;48659;41.622;2.276;2023-05-22T01:11:40;99470.00;;;18.03;53.14
62592;BME280;48659;41.622;2.276;2023-05-22T01:14:17;99467.54;;;16.57;55.91
62592;BME280;48659;41.622;2.276;2023-05-22T01:16:52;99467.53;;;18.01;53.48
62592;BME280;48659;41.622;2.276;2023-05-22T01:19:36;99467.04;;;18.49;52.06
62592;BME280;48659;41.622;2.276;2023-05-22T01:22:25;99467.55;;;18.36;52.44
62592;BME280;48659;41.622;2.276;2023-05-22T01:25:08;99466.10;;;18.05;52.99
62592;BME280;48659;41.622;2.276;2023-05-22T01:28:00;99464.32;;;18.45;52.09
62592;BME280;48659;41.622;2.276;2023-05-22T01:30:45;99463.28;;;18.38;52.00
62592;BME280;48659;41.622;2.276;2023-05-22T01:33:14;99462.69;;;18.27;52.76
62592;BME280;48659;41.622;2.276;2023-05-22T01:35:45;99462.74;;;18.08;52.84
62592;BME280;48659;41.622;2.276;2023-05-22T01:38:14;99461.17;;;17.99;52.88
62592;BME280;48659;41.622;2.276;2023-05-22T01:40:43;99464.13;;;16.81;55.39
62592;BME280;48659;41.622;2.276;2023-05-22T01:43:12;99465.04;;;17.94;53.44
62592;BME280;48659;41.622;2.276;2023-05-22T01:45:40;99470.20;;;15.92;58.73
62592;BME280;48659;41.622;2.276;2023-05-22T01:48:08;99468.66;;;16.12;58.63
62592;BME280;48659;41.622;2.276;2023-05-22T01:50:35;99464.90;;;16.92;56.64
62592;BME280;48659;41.622;2.276;2023-05-22T01:53:10;99460.16;;;17.56;55.54
62592;BME280;48659;41.622;2.276;2023-05-22T01:55:45;99460.07;;;17.68;54.22
62592;BME280;48659;41.622;2.276;2023-05-22T01:58:23;99461.31;;;17.92;53.69
62592;BME280;48659;41.622;2.276;2023-05-22T02:00:51;99462.90;;;18.17;53.20
62592;BME280;48659;41.622;2.276;2023-05-22T02:03:28;99463.13;;;18.01;53.55
62592;BME280;48659;41.622;2.276;2023-05-22T02:06:00;99463.31;;;18.28;52.43
62592;BME280;48659;41.622;2.276;2023-05-22T02:08:29;99461.75;;;18.19;52.44
62592;BME280;48659;41.622;2.276;2023-05-22T02:10:58;99463.19;;;18.38;52.30
62592;BME280;48659;41.622;2.276;2023-05-22T02:13:26;99461.10;;;18.35;52.39
62592;BME280;48659;41.622;2.276;2023-05-22T02:15:54;99458.63;;;18.35;52.42
62592;BME280;48659;41.622;2.276;2023-05-22T02:18:25;99461.06;;;18.01;52.74
62592;BME280;48659;41.622;2.276;2023-05-22T02:20:53;99457.75;;;18.14;52.51
62592;BME280;48659;41.622;2.276;2023-05-22T02:23:21;99458.73;;;18.35;51.94
62592;BME280;48659;41.622;2.276;2023-05-22T02:29:54;99463.36;;;17.64;51.89
62592;BME280;48659;41.622;2.276;2023-05-22T02:32:22;99463.42;;;19.32;49.83
62592;BME280;48659;41.622;2.276;2023-05-22T02:34:50;99459.17;;;18.37;50.74
62592;BME280;48659;41.622;2.276;2023-05-22T02:37:18;99457.29;;;18.64;50.49
62592;BME280;48659;41.622;2.276;2023-05-22T02:39:47;99455.52;;;17.98;52.52
62592;BME280;48659;41.622;2.276;2023-05-22T02:42:14;99453.28;;;16.99;54.98
62592;BME280;48659;41.622;2.276;2023-05-22T02:44:41;99450.37;;;17.98;53.19
62592;BME280;48659;41.622;2.276;2023-05-22T02:47:08;99448.65;;;16.98;55.76
62592;BME280;48659;41.622;2.276;2023-05-22T02:49:36;99455.77;;;16.55;57.13
62592;BME280;48659;41.622;2.276;2023-05-22T02:52:05;99448.98;;;16.76;55.57
62592;BME280;48659;41.622;2.276;2023-05-22T02:54:33;99446.25;;;16.79;56.20
62592;BME280;48659;41.622;2.276;2023-05-22T02:57:05;99448.54;;;17.69;53.78
62592;BME280;48659;41.622;2.276;2023-05-22T02:59:33;99445.86;;;18.09;52.72
62592;BME280;48659;41.622;2.276;2023-05-22T03:02:04;99442.27;;;17.49;54.06
62592;BME280;48659;41.622;2.276;2023-05-22T03:04:32;99444.04;;;18.23;52.21
62592;BME280;48659;41.622;2.276;2023-05-22T03:07:05;99439.82;;;17.63;52.92
62592;BME280;48659;41.622;2.276;2023-05-22T03:09:32;99439.38;;;18.28;52.01
62592;BME280;48659;41.622;2.276;2023-05-22T03:11:59;99437.97;;;17.71;53.29
62592;BME280;48659;41.622;2.276;2023-05-22T03:14:27;99433.58;;;16.79;56.35
62592;BME280;48659;41.622;2.276;2023-05-22T03:16:54;99434.30;;;17.13;55.67
62592;BME280;48659;41.622;2.276;2023-05-22T03:19:22;99430.70;;;18.17;53.83
62592;BME280;48659;41.622;2.276;2023-05-22T03:21:49;99431.70;;;17.81;53.57
62592;BME280;48659;41.622;2.276;2023-05-22T03:24:16;99429.63;;;16.47;56.38
62592;BME280;48659;41.622;2.276;2023-05-22T03:26:44;99432.20;;;15.17;60.85
62592;BME280;48659;41.622;2.276;2023-05-22T03:29:11;99429.69;;;16.69;56.81
62592;BME280;48659;41.622;2.276;2023-05-22T03:31:39;99434.82;;;14.98;61.05
62592;BME280;48659;41.622;2.276;2023-05-22T03:34:06;99432.49;;;13.83;65.79
62592;BME280;48659;41.622;2.276;2023-05-22T03:36:33;99431.41;;;15.21;63.21
62592;BME280;48659;41.622;2.276;2023-05-22T03:39:04;99431.57;;;15.87;59.90
62592;BME280;48659;41.622;2.276;2023-05-22T03:41:31;99428.47;;;15.11;61.78
62592;BME280;48659;41.622;2.276;2023-05-22T03:44:05;99421.38;;;16.59;56.99
62592;BME280;48659;41.622;2.276;2023-05-22T03:46:34;99423.33;;;17.75;54.22
62592;BME280;48659;41.622;2.276;2023-05-22T03:49:01;99420.63;;;18.20;52.74
62592;BME280;48659;41.622;2.276;2023-05-22T03:51:29;99414.59;;;18.37;51.33
62592;BME280;48659;41.622;2.276;2023-05-22T03:54:05;99414.54;;;18.18;52.17
62592;BME280;48659;41.622;2.276;2023-05-22T03:56:33;99414.11;;;18.08;52.58
62592;BME280;48659;41.622;2.276;2023-05-22T03:59:14;99412.76;;;18.73;51.47
62592;BME280;48659;41.622;2.276;2023-05-22T04:01:41;99411.49;;;18.58;51.27
62592;BME280;48659;41.622;2.276;2023-05-22T04:04:08;99411.83;;;18.54;51.48
62592;BME280;48659;41.622;2.276;2023-05-22T04:06:36;99414.26;;;18.69;51.17
62592;BME280;48659;41.622;2.276;2023-05-22T04:09:05;99417.13;;;18.53;51.53
62592;BME280;48659;41.622;2.276;2023-05-22T04:11:33;99420.39;;;18.93;50.99
62592;BME280;48659;41.622;2.276;2023-05-22T04:14:07;99423.85;;;18.35;51.35
62592;BME280;48659;41.622;2.276;2023-05-22T04:16:35;99422.24;;;18.98;50.49
62592;BME280;48659;41.622;2.276;2023-05-22T04:19:02;99428.33;;;18.00;52.02
62592;BME280;48659;41.622;2.276;2023-05-22T04:21:30;99426.19;;;18.42;51.07
62592;BME280;48659;41.622;2.276;2023-05-22T04:24:15;99431.24;;;18.33;51.25
62592;BME280;48659;41.622;2.276;2023-05-22T04:26:42;99436.41;;;18.23;52.29
62592;BME280;48659;41.622;2.276;2023-05-22T04:29:09;99432.35;;;18.36;51.99
62592;BME280;48659;41.622;2.276;2023-05-22T04:31:37;99433.30;;;18.37;50.98
62592;BME280;48659;41.622;2.276;2023-05-22T04:34:05;99437.03;;;18.78;51.15
62592;BME280;48659;41.622;2.276;2023-05-22T04:36:32;99436.97;;;18.90;51.26
62592;BME280;48659;41.622;2.276;2023-05-22T04:38:59;99437.01;;;18.72;50.70
62592;BME280;48659;41.622;2.276;2023-05-22T04:41:26;99438.37;;;18.50;51.44
62592;BME280;48659;41.622;2.276;2023-05-22T04:43:53;99437.26;;;18.75;50.80
62592;BME280;48659;41.622;2.276;2023-05-22T04:46:20;99440.53;;;17.62;54.12
62592;BME280;48659;41.622;2.276;2023-05-22T04:48:48;99442.25;;;17.58;54.68
62592;BME280;48659;41.622;2.276;2023-05-22T04:51:16;99443.34;;;17.00;55.63
62592;BME280;48659;41.622;2.276;2023-05-22T04:53:43;99443.89;;;16.36;58.10
62592;BME280;48659;41.622;2.276;2023-05-22T04:56:11;99442.55;;;17.14;56.37
62592;BME280;48659;41.622;2.276;2023-05-22T04:58:39;99447.66;;;17.04;57.34
62592;BME280;48659;41.622;2.276;2023-05-22T05:01:07;99449.53;;;18.17;53.90
62592;BME280;48659;41.622;2.276;2023-05-22T05:03:34;99448.00;;;17.59;55.10
62592;BME280;48659;41.622;2.276;2023-05-22T05:06:03;99446.25;;;18.25;52.74
62592;BME280;48659;41.622;2.276;2023-05-22T05:08:30;99449.15;;;18.57;52.76
62592;BME280;48659;41.622;2.276;2023-05-22T05:10:58;99451.73;;;18.43;52.19
62592;BME280;48659;41.622;2.276;2023-05-22T05:13:26;99457.85;;;18.49;52.17
62592;BME280;48659;41.622;2.276;2023-05-22T05:15:54;99463.78;;;17.93;54.19
62592;BME280;48659;41.622;2.276;2023-05-22T05:18:21;99471.49;;;15.88;59.10
62592;BME280;48659;41.622;2.276;2023-05-22T05:20:49;99464.21;;;17.54;55.66
62592;BME280;48659;41.622;2.276;2023-05-22T05:23:17;99463.93;;;17.38;56.27
62592;BME280;48659;41.622;2.276;2023-05-22T05:25:44;99472.78;;;15.94;59.08
62592;BME280;48659;41.622;2.276;2023-05-22T05:28:11;99478.84;;;15.87;59.72
62592;BME280;48659;41.622;2.276;2023-05-22T05:30:39;99482.99;;;15.12;61.10
62592;BME280;48659;41.622;2.276;2023-05-22T05:33:07;99481.42;;;16.89;58.16
62592;BME280;48659;41.622;2.276;2023-05-22T05:35:35;99484.62;;;18.03;55.27
62592;BME280;48659;41.622;2.276;2023-05-22T05:38:04;99486.90;;;17.91;54.81
62592;BME280;48659;41.622;2.276;2023-05-22T05:40:32;99488.65;;;16.08;58.22
62592;BME280;48659;41.622;2.276;2023-05-22T05:43:05;99480.85;;;16.80;57.28
62592;BME280;48659;41.622;2.276;2023-05-22T05:45:32;99482.52;;;17.87;55.84
62592;BME280;48659;41.622;2.276;2023-05-22T05:48:00;99490.66;;;15.68;60.45
62592;BME280;48659;41.622;2.276;2023-05-22T05:50:28;99482.82;;;17.43;57.25
62592;BME280;48659;41.622;2.276;2023-05-22T05:53:11;99482.91;;;18.48;55.32
62592;BME280;48659;41.622;2.276;2023-05-22T05:55:39;99481.17;;;18.26;54.38
62592;BME280;48659;41.622;2.276;2023-05-22T05:58:06;99486.42;;;18.10;54.32
62592;BME280;48659;41.622;2.276;2023-05-22T06:00:33;99484.84;;;18.43;53.55
62592;BME280;48659;41.622;2.276;2023-05-22T06:03:01;99484.01;;;18.84;53.37
62592;BME280;48659;41.622;2.276;2023-05-22T06:05:29;99493.95;;;18.20;54.59
62592;BME280;48659;41.622;2.276;2023-05-22T06:08:12;99499.76;;;16.74;58.46
62592;BME280;48659;41.622;2.276;2023-05-22T06:10:40;99501.26;;;17.05;57.33
62592;BME280;48659;41.622;2.276;2023-05-22T06:13:07;99506.90;;;18.03;55.15
62592;BME280;48659;41.622;2.276;2023-05-22T06:15:35;99512.58;;;17.48;56.51
62592;BME280;48659;41.622;2.276;2023-05-22T06:18:03;99518.24;;;16.50;60.04
62592;BME280;48659;41.622;2.276;2023-05-22T06:20:30;99519.47;;;16.55;59.27
62592;BME280;48659;41.622;2.276;2023-05-22T06:23:05;99524.96;;;13.96;68.27
62592;BME280;48659;41.622;2.276;2023-05-22T06:25:33;99525.23;;;16.36;61.53
62592;BME280;48659;41.622;2.276;2023-05-22T06:28:05;99519.20;;;17.57;56.79
62592;BME280;48659;41.622;2.276;2023-05-22T06:30:32;99513.85;;;17.98;55.31
62592;BME280;48659;41.622;2.276;2023-05-22T06:33:04;99512.17;;;18.44;54.46
62592;BME280;48659;41.622;2.276;2023-05-22T06:35:32;99513.09;;;18.56;54.07
62592;BME280;48659;41.622;2.276;2023-05-22T06:38:05;99520.81;;;16.59;58.79
62592;BME280;48659;41.622;2.276;2023-05-22T06:40:33;99516.37;;;17.38;57.25
62592;BME280;48659;41.622;2.276;2023-05-22T06:43:05;99515.40;;;18.21;55.54
62592;BME280;48659;41.622;2.276;2023-05-22T06:45:33;99516.20;;;18.31;54.92
62592;BME280;48659;41.622;2.276;2023-05-22T06:48:05;99516.19;;;18.10;54.99
62592;BME280;48659;41.622;2.276;2023-05-22T06:50:33;99514.44;;;16.94;57.75
62592;BME280;48659;41.622;2.276;2023-05-22T06:53:00;99516.71;;;18.21;55.47
62592;BME280;48659;41.622;2.276;2023-05-22T06:55:28;99513.64;;;18.45;55.19
62592;BME280;48659;41.622;2.276;2023-05-22T06:58:04;99510.84;;;18.77;54.57
62592;BME280;48659;41.622;2.276;2023-05-22T07:00:31;99510.54;;;18.08;55.00
62592;BME280;48659;41.622;2.276;2023-05-22T07:02:59;99512.62;;;19.10;53.20
62592;BME280;48659;41.622;2.276;2023-05-22T07:05:27;99512.38;;;19.20;52.88
62592;BME280;48659;41.622;2.276;2023-05-22T07:07:54;99508.71;;;19.65;51.66
62592;BME280;48659;41.622;2.276;2023-05-22T07:10:22;99509.95;;;19.54;51.22
62592;BME280;48659;41.622;2.276;2023-05-22T07:12:50;99513.37;;;19.87;50.56
62592;BME280;48659;41.622;2.276;2023-05-22T07:15:17;99520.67;;;17.27;55.13
62592;BME280;48659;41.622;2.276;2023-05-22T07:17:44;99525.07;;;17.73;54.96
62592;BME280;48659;41.622;2.276;2023-05-22T07:20:12;99528.69;;;17.81;55.22
62592;BME280;48659;41.622;2.276;2023-05-22T07:22:39;99529.90;;;17.80;56.37
62592;BME280;48659;41.622;2.276;2023-05-22T07:25:08;99530.69;;;18.18;55.67
62592;BME280;48659;41.622;2.276;2023-05-22T07:27:35;99531.45;;;18.16;54.58
62592;BME280;48659;41.622;2.276;2023-05-22T07:30:08;99531.66;;;17.08;56.56
62592;BME280;48659;41.622;2.276;2023-05-22T07:32:36;99527.70;;;17.50;54.88
62592;BME280;48659;41.622;2.276;2023-05-22T07:35:04;99526.80;;;17.77;54.02
62592;BME280;48659;41.622;2.276;2023-05-22T07:37:31;99527.22;;;18.13;53.20
62592;BME280;48659;41.622;2.276;2023-05-22T07:40:09;99527.54;;;18.39;52.55
62592;BME280;48659;41.622;2.276;2023-05-22T07:42:36;99529.84;;;18.86;51.43
62592;BME280;48659;41.622;2.276;2023-05-22T07:45:06;99535.65;;;17.97;51.36
62592;BME280;48659;41.622;2.276;2023-05-22T07:47:34;99539.15;;;18.04;51.85
62592;BME280;48659;41.622;2.276;2023-05-22T07:50:09;99540.56;;;18.29;50.74
62592;BME280;48659;41.622;2.276;2023-05-22T07:52:37;99539.57;;;17.92;51.11
62592;BME280;48659;41.622;2.276;2023-05-22T07:55:05;99540.15;;;18.45;49.44
62592;BME280;48659;41.622;2.276;2023-05-22T07:57:33;99546.26;;;16.54;54.19
62592;BME280;48659;41.622;2.276;2023-05-22T08:00:09;99548.08;;;15.69;56.30
62592;BME280;48659;41.622;2.276;2023-05-22T08:02:37;99548.94;;;16.18;57.08
62592;BME280;48659;41.622;2.276;2023-05-22T08:05:06;99544.33;;;16.97;53.92
62592;BME280;48659;41.622;2.276;2023-05-22T08:07:34;99554.87;;;16.70;56.06
62592;BME280;48659;41.622;2.276;2023-05-22T08:10:13;99556.93;;;16.35;57.54
62592;BME280;48659;41.622;2.276;2023-05-22T08:12:42;99555.91;;;16.52;58.32
62592;BME280;48659;41.622;2.276;2023-05-22T08:15:10;99555.88;;;15.84;58.94
62592;BME280;48659;41.622;2.276;2023-05-22T08:17:38;99558.79;;;16.48;57.74
62592;BME280;48659;41.622;2.276;2023-05-22T08:20:08;99557.91;;;16.76;55.93
62592;BME280;48659;41.622;2.276;2023-05-22T08:22:38;99556.22;;;17.29;56.64
62592;BME280;48659;41.622;2.276;2023-05-22T08:25:06;99555.56;;;17.20;57.03
62592;BME280;48659;41.622;2.276;2023-05-22T08:27:34;99555.67;;;16.81;57.88
62592;BME280;48659;41.622;2.276;2023-05-22T08:30:07;99559.72;;;16.31;59.56
62592;BME280;48659;41.622;2.276;2023-05-22T08:32:35;99553.12;;;17.91;55.45
62592;BME280;48659;41.622;2.276;2023-05-22T08:35:06;99554.45;;;17.14;56.48
62592;BME280;48659;41.622;2.276;2023-05-22T08:37:34;99547.83;;;17.59;55.47
62592;BME280;48659;41.622;2.276;2023-05-22T08:40:11;99546.46;;;15.22;60.23
62592;BME280;48659;41.622;2.276;2023-05-22T08:42:38;99548.00;;;15.34;62.00
62592;BME280;48659;41.622;2.276;2023-05-22T08:45:06;99545.77;;;14.28;64.58
62592;BME280;48659;41.622;2.276;2023-05-22T08:47:34;99542.29;;;15.39;62.20
62592;BME280;48659;41.622;2.276;2023-05-22T08:50:09;99542.03;;;14.93;64.12
62592;BME280;48659;41.622;2.276;2023-05-22T08:52:46;99538.56;;;17.12;57.54
62592;BME280;48659;41.622;2.276;2023-05-22T08:55:15;99543.57;;;18.90;53.37
62592;BME280;48659;41.622;2.276;2023-05-22T08:57:43;99543.51;;;18.52;52.36
62592;BME280;48659;41.622;2.276;2023-05-22T09:00:12;99543.62;;;19.43;50.50
62592;BME280;48659;41.622;2.276;2023-05-22T09:02:40;99543.50;;;19.77;49.54
62592;BME280;48659;41.622;2.276;2023-05-22T09:05:08;99541.11;;;19.88;49.12
62592;BME280;48659;41.622;2.276;2023-05-22T09:07:36;99538.60;;;19.94;48.35
62592;BME280;48659;41.622;2.276;2023-05-22T09:10:04;99541.34;;;19.59;49.75
62592;BME280;48659;41.622;2.276;2023-05-22T09:12:32;99541.47;;;19.66;49.45
62592;BME280;48659;41.622;2.276;2023-05-22T09:15:08;99542.32;;;18.84;51.19
62592;BME280;48659;41.622;2.276;2023-05-22T09:17:38;99546.19;;;18.61;52.28
62592;BME280;48659;41.622;2.276;2023-05-22T09:20:07;99551.06;;;16.55;57.07
62592;BME280;48659;41.622;2.276;2023-05-22T09:22:35;99547.77;;;18.99;52.40
62592;BME280;48659;41.622;2.276;2023-05-22T09:25:04;99541.85;;;19.50;50.25
62592;BME280;48659;41.622;2.276;2023-05-22T09:27:32;99543.89;;;20.08;49.74
62592;BME280;48659;41.622;2.276;2023-05-22T09:30:00;99543.62;;;20.04;48.74
62592;BME280;48659;41.622;2.276;2023-05-22T09:32:29;99543.78;;;20.35;48.39
62592;BME280;48659;41.622;2.276;2023-05-22T09:35:04;99543.54;;;20.78;47.90
62592;BME280;48659;41.622;2.276;2023-05-22T09:37:34;99542.88;;;18.42;52.23
62592;BME280;48659;41.622;2.276;2023-05-22T09:40:10;99544.41;;;18.51;53.17
62592;BME280;48659;41.622;2.276;2023-05-22T09:42:38;99543.37;;;20.27;48.82
62592;BME280;48659;41.622;2.276;2023-05-22T09:45:10;99543.25;;;18.72;50.70
62592;BME280;48659;41.622;2.276;2023-05-22T09:47:38;99538.17;;;20.78;47.06
62592;BME280;48659;41.622;2.276;2023-05-22T09:50:06;99535.56;;;17.69;52.51
62592;BME280;48659;41.622;2.276;2023-05-22T09:52:36;99532.08;;;18.99;52.14
62592;BME280;48659;41.622;2.276;2023-05-22T09:55:06;99528.26;;;16.97;56.79
62592;BME280;48659;41.622;2.276;2023-05-22T09:57:40;99530.00;;;17.48;56.60
62592;BME280;48659;41.622;2.276;2023-05-22T10:00:11;99523.93;;;17.12;57.77
62592;BME280;48659;41.622;2.276;2023-05-22T10:02:42;99529.45;;;16.61;58.20
62592;BME280;48659;41.622;2.276;2023-05-22T10:05:11;99529.78;;;18.02;55.62
62592;BME280;48659;41.622;2.276;2023-05-22T10:07:45;99533.14;;;17.94;55.05
62592;BME280;48659;41.622;2.276;2023-05-22T10:10:15;99530.39;;;18.46;52.33
62592;BME280;48659;41.622;2.276;2023-05-22T10:12:49;99528.59;;;19.99;49.25
62592;BME280;48659;41.622;2.276;2023-05-22T10:15:18;99522.56;;;20.36;47.41
62592;BME280;48659;41.622;2.276;2023-05-22T10:17:47;99520.81;;;20.76;45.53
62592;BME280;48659;41.622;2.276;2023-05-22T10:20:16;99522.92;;;20.51;47.00
62592;BME280;48659;41.622;2.276;2023-05-22T10:22:45;99520.57;;;21.85;43.97
62592;BME280;48659;41.622;2.276;2023-05-22T10:25:13;99526.66;;;19.14;48.90
62592;BME280;48659;41.622;2.276;2023-05-22T10:27:41;99528.24;;;19.90;48.58
62592;BME280;48659;41.622;2.276;2023-05-22T10:30:18;99531.99;;;18.31;51.60
62592;BME280;48659;41.622;2.276;2023-05-22T10:32:53;99534.79;;;18.08;52.48
62592;BME280;48659;41.622;2.276;2023-05-22T10:35:31;99536.82;;;18.53;52.41
62592;BME280;48659;41.622;2.276;2023-05-22T10:38:17;99534.35;;;18.44;52.42
62592;BME280;48659;41.622;2.276;2023-05-22T10:40:46;99536.05;;;19.50;50.65
62592;BME280;48659;41.622;2.276;2023-05-22T10:43:13;99529.69;;;19.35;49.80
62592;BME280;48659;41.622;2.276;2023-05-22T10:45:43;99535.89;;;19.06;49.86
62592;BME280;48659;41.622;2.276;2023-05-22T10:48:12;99536.40;;;18.73;50.34
62592;BME280;48659;41.622;2.276;2023-05-22T10:50:50;99541.14;;;17.98;52.02
62592;BME280;48659;41.622;2.276;2023-05-22T10:53:18;99539.39;;;17.92;52.42
62592;BME280;48659;41.622;2.276;2023-05-22T10:55:46;99537.09;;;18.05;52.84
62592;BME280;48659;41.622;2.276;2023-05-22T10:58:15;99540.75;;;18.07;52.52
62592;BME280;48659;41.622;2.276;2023-05-22T11:00:43;99552.65;;;16.22;58.11
62592;BME280;48659;41.622;2.276;2023-05-22T11:03:10;99544.15;;;17.33;55.64
62592;BME280;48659;41.622;2.276;2023-05-22T11:05:38;99543.66;;;17.22;56.25
62592;BME280;48659;41.622;2.276;2023-05-22T11:08:10;99546.79;;;16.59;58.23
62592;BME280;48659;41.622;2.276;2023-05-22T11:10:54;99545.89;;;16.68;57.82
62592;BME280;48659;41.622;2.276;2023-05-22T11:13:25;99539.14;;;17.88;54.73
62592;BME280;48659;41.622;2.276;2023-05-22T11:15:54;99552.81;;;16.04;59.35
62592;BME280;48659;41.622;2.276;2023-05-22T11:18:21;99547.29;;;16.72;60.59
62592;BME280;48659;41.622;2.276;2023-05-22T11:20:49;99547.42;;;16.32;62.79
62592;BME280;48659;41.622;2.276;2023-05-22T11:23:19;99544.17;;;16.74;61.70
62592;BME280;48659;41.622;2.276;2023-05-22T11:25:48;99545.81;;;16.72;62.20
62592;BME280;48659;41.622;2.276;2023-05-22T11:28:15;99532.87;;;16.46;60.74
62592;BME280;48659;41.622;2.276;2023-05-22T11:30:43;99533.75;;;16.83;59.73
62592;BME280;48659;41.622;2.276;2023-05-22T11:33:11;99528.46;;;16.86;59.38
62592;BME280;48659;41.622;2.276;2023-05-22T11:35:40;99522.92;;;17.22;58.01
62592;BME280;48659;41.622;2.276;2023-05-22T11:38:08;99519.46;;;16.97;58.61
62592;BME280;48659;41.622;2.276;2023-05-22T11:40:35;99519.94;;;17.08;58.14
62592;BME280;48659;41.622;2.276;2023-05-22T11:43:05;99513.32;;;17.16;56.38
62592;BME280;48659;41.622;2.276;2023-05-22T11:45:36;99507.35;;;17.37;55.70
62592;BME280;48659;41.622;2.276;2023-05-22T11:48:07;99499.96;;;17.52;54.82
62592;BME280;48659;41.622;2.276;2023-05-22T11:50:35;99497.88;;;18.57;52.46
62592;BME280;48659;41.622;2.276;2023-05-22T11:53:06;99498.39;;;18.17;52.64
62592;BME280;48659;41.622;2.276;2023-05-22T11:55:35;99495.49;;;17.70;53.42
62592;BME280;48659;41.622;2.276;2023-05-22T11:58:05;99490.43;;;17.40;55.12
62592;BME280;48659;41.622;2.276;2023-05-22T12:00:33;99486.65;;;17.88;53.07
62592;BME280;48659;41.622;2.276;2023-05-22T12:03:05;99490.58;;;17.84;52.65
62592;BME280;48659;41.622;2.276;2023-05-22T12:05:33;99499.56;;;17.45;52.03
62592;BME280;48659;41.622;2.276;2023-05-22T12:08:00;99492.79;;;17.27;51.98
62592;BME280;48659;41.622;2.276;2023-05-22T12:10:28;99480.60;;;18.12;51.18
62592;BME280;48659;41.622;2.276;2023-05-22T12:12:57;99475.87;;;18.15;51.56
62592;BME280;48659;41.622;2.276;2023-05-22T12:15:26;99482.96;;;18.33;50.75
62592;BME280;48659;41.622;2.276;2023-05-22T12:17:54;99473.31;;;18.11;50.81
62592;BME280;48659;41.622;2.276;2023-05-22T12:20:21;99483.07;;;18.13;49.99
62592;BME280;48659;41.622;2.276;2023-05-22T12:22:49;99458.85;;;18.39;49.05
62592;BME280;48659;41.622;2.276;2023-05-22T12:25:17;99466.24;;;18.96;47.77
62592;BME280;48659;41.622;2.276;2023-05-22T12:27:45;99457.93;;;18.85;47.87
62592;BME280;48659;41.622;2.276;2023-05-22T12:30:13;99454.74;;;18.25;47.94
62592;BME280;48659;41.622;2.276;2023-05-22T12:32:46;99466.45;;;18.73;47.95
62592;BME280;48659;41.622;2.276;2023-05-22T12:35:14;99449.47;;;18.35;48.25
62592;BME280;48659;41.622;2.276;2023-05-22T12:37:47;99448.31;;;18.50;48.15
62592;BME280;48659;41.622;2.276;2023-05-22T12:40:14;99451.78;;;18.88;46.98
62592;BME280;48659;41.622;2.276;2023-05-22T12:42:42;99442.09;;;19.35;46.57
62592;BME280;48659;41.622;2.276;2023-05-22T12:45:10;99438.27;;;18.90;46.65
62592;BME280;48659;41.622;2.276;2023-05-22T12:47:37;99431.77;;;18.86;46.46
62592;BME280;48659;41.622;2.276;2023-05-22T12:50:07;99432.65;;;19.58;44.52
62592;BME280;48659;41.622;2.276;2023-05-22T12:52:34;99430.33;;;19.54;45.73
62592;BME280;48659;41.622;2.276;2023-05-22T12:55:06;99425.19;;;19.52;46.00
62592;BME280;48659;41.622;2.276;2023-05-22T12:57:33;99422.61;;;19.86;44.43
62592;BME280;48659;41.622;2.276;2023-05-22T13:00:01;99418.27;;;19.63;44.61
62592;BME280;48659;41.622;2.276;2023-05-22T13:02:28;99414.40;;;20.08;44.60
62592;BME280;48659;41.622;2.276;2023-05-22T13:05:06;99417.11;;;20.23;45.20
62592;BME280;48659;41.622;2.276;2023-05-22T13:07:34;99414.23;;;19.85;44.20
62592;BME280;48659;41.622;2.276;2023-05-22T13:10:09;99420.20;;;19.58;44.89
62592;BME280;48659;41.622;2.276;2023-05-22T13:12:36;99416.09;;;19.67;44.54
62592;BME280;48659;41.622;2.276;2023-05-22T13:15:05;99416.30;;;19.94;44.57
62592;BME280;48659;41.622;2.276;2023-05-22T13:17:33;99410.24;;;19.56;45.86